DLH778 RJAA-RJBB
Flight info
| Callsign | DLH778 |
|---|---|
| Flight time | 1h 5m |
| Altitude | 38000 |
| Route | PIGOK Y50 ELNIS Y564 IBENO Y56 TOHME Y54 KOHWA Y544 DUBKA |
| Aircraft | A346/H-SDE2E3FGHIJ3J4J5M1RWXY/LB1D1 |
Departure
| Time | 2026-05-05 07:30 |
|---|---|
| Airport | Narita International Airport (RJAA) |
Arrival
| Time | 2026-05-05 08:35 |
|---|---|
| Airport | Kansai International Airport (RJBB) |
| Time | Latitude | Longitude | Altitude | Speed | Heading |
|---|---|---|---|---|---|
| 2026-05-05 07:09 | 35.76318 | 140.38271 | 145 ft | 0 kts | 59° |
| 2026-05-05 07:18 | 35.76314 | 140.38263 | 145 ft | 2 kts | 59° |
| 2026-05-05 07:18 | 35.76306 | 140.38246 | 145 ft | 2 kts | 59° |
| 2026-05-05 07:18 | 35.76301 | 140.38235 | 145 ft | 1 kts | 59° |
| 2026-05-05 07:19 | 35.76293 | 140.38220 | 145 ft | 2 kts | 45° |
| 2026-05-05 07:19 | 35.76280 | 140.38208 | 145 ft | 2 kts | 27° |
| 2026-05-05 07:19 | 35.76264 | 140.38200 | 145 ft | 2 kts | 11° |
| 2026-05-05 07:19 | 35.76248 | 140.38199 | 145 ft | 2 kts | 356° |
| 2026-05-05 07:20 | 35.76233 | 140.38202 | 145 ft | 2 kts | 342° |
| 2026-05-05 07:20 | 35.76221 | 140.38208 | 145 ft | 0 kts | 330° |
| 2026-05-05 07:20 | 35.76219 | 140.38209 | 145 ft | 0 kts | 328° |
| 2026-05-05 07:24 | 35.76235 | 140.38196 | 145 ft | 5 kts | 320° |
| 2026-05-05 07:24 | 35.76247 | 140.38141 | 145 ft | 9 kts | 258° |
| 2026-05-05 07:25 | 35.76215 | 140.38057 | 145 ft | 11 kts | 241° |
| 2026-05-05 07:25 | 35.76225 | 140.37968 | 145 ft | 12 kts | 314° |
| 2026-05-05 07:25 | 35.76308 | 140.37903 | 145 ft | 15 kts | 329° |
| 2026-05-05 07:25 | 35.76408 | 140.37831 | 145 ft | 17 kts | 329° |
| 2026-05-05 07:26 | 35.76517 | 140.37752 | 145 ft | 19 kts | 329° |
| 2026-05-05 07:26 | 35.76638 | 140.37665 | 145 ft | 20 kts | 329° |
| 2026-05-05 07:26 | 35.76769 | 140.37570 | 145 ft | 22 kts | 329° |
| 2026-05-05 07:26 | 35.76910 | 140.37468 | 145 ft | 24 kts | 329° |
| 2026-05-05 07:27 | 35.77049 | 140.37369 | 145 ft | 23 kts | 329° |
| 2026-05-05 07:27 | 35.77194 | 140.37264 | 145 ft | 22 kts | 329° |
| 2026-05-05 07:27 | 35.77298 | 140.37189 | 145 ft | 13 kts | 326° |
| 2026-05-05 07:27 | 35.77334 | 140.37088 | 144 ft | 12 kts | 255° |
| 2026-05-05 07:28 | 35.77292 | 140.36990 | 140 ft | 10 kts | 239° |
| 2026-05-05 07:28 | 35.77276 | 140.36963 | 139 ft | 2 kts | 211° |
| 2026-05-05 07:28 | 35.77255 | 140.36968 | 140 ft | 5 kts | 156° |
| 2026-05-05 07:28 | 35.77211 | 140.36995 | 140 ft | 8 kts | 150° |
| 2026-05-05 07:29 | 35.77102 | 140.37073 | 139 ft | 41 kts | 149° |
| 2026-05-05 07:29 | 35.76626 | 140.37418 | 140 ft | 115 kts | 149° |
| 2026-05-05 07:29 | 35.75756 | 140.38043 | 172 ft | 170 kts | 149° |
| 2026-05-05 07:29 | 35.74708 | 140.38792 | 717 ft | 179 kts | 149° |
| 2026-05-05 07:30 | 35.73624 | 140.39554 | 1480 ft | 180 kts | 149° |
| 2026-05-05 07:30 | 35.71415 | 140.41157 | 2744 ft | 200 kts | 148° |
| 2026-05-05 07:30 | 35.70181 | 140.42053 | 3225 ft | 217 kts | 148° |
| 2026-05-05 07:31 | 35.68803 | 140.43054 | 3679 ft | 240 kts | 148° |
| 2026-05-05 07:31 | 35.67320 | 140.44127 | 4267 ft | 257 kts | 149° |
| 2026-05-05 07:31 | 35.65757 | 140.45253 | 5065 ft | 266 kts | 149° |
| 2026-05-05 07:31 | 35.64164 | 140.46400 | 5929 ft | 272 kts | 149° |
| 2026-05-05 07:32 | 35.62503 | 140.47591 | 6761 ft | 279 kts | 149° |
| 2026-05-05 07:32 | 35.60810 | 140.48807 | 7595 ft | 285 kts | 149° |
| 2026-05-05 07:32 | 35.59103 | 140.50034 | 8424 ft | 291 kts | 149° |
| 2026-05-05 07:32 | 35.57330 | 140.51309 | 9225 ft | 297 kts | 149° |
| 2026-05-05 07:33 | 35.55538 | 140.52599 | 10001 ft | 303 kts | 150° |
| 2026-05-05 07:33 | 35.53704 | 140.53914 | 10679 ft | 314 kts | 150° |
| 2026-05-05 07:33 | 35.51780 | 140.55292 | 11140 ft | 331 kts | 150° |
| 2026-05-05 07:33 | 35.49727 | 140.56760 | 11561 ft | 350 kts | 150° |
| 2026-05-05 07:34 | 35.47456 | 140.58061 | 11916 ft | 367 kts | 166° |
| 2026-05-05 07:34 | 35.44898 | 140.58345 | 12273 ft | 379 kts | 187° |
| 2026-05-05 07:34 | 35.42324 | 140.57504 | 12651 ft | 388 kts | 208° |
| 2026-05-05 07:34 | 35.40143 | 140.55615 | 13315 ft | 388 kts | 228° |
| 2026-05-05 07:35 | 35.38589 | 140.52946 | 14117 ft | 384 kts | 243° |
| 2026-05-05 07:35 | 35.37267 | 140.50078 | 14902 ft | 388 kts | 243° |
| 2026-05-05 07:35 | 35.36049 | 140.47148 | 15636 ft | 391 kts | 250° |
| 2026-05-05 07:35 | 35.35214 | 140.44017 | 16407 ft | 391 kts | 258° |
| 2026-05-05 07:36 | 35.34776 | 140.40727 | 17185 ft | 392 kts | 266° |
| 2026-05-05 07:36 | 35.34544 | 140.37428 | 17918 ft | 395 kts | 267° |
| 2026-05-05 07:36 | 35.34330 | 140.34056 | 18629 ft | 398 kts | 267° |
| 2026-05-05 07:36 | 35.34114 | 140.30701 | 19392 ft | 399 kts | 266° |
| 2026-05-05 07:37 | 35.33895 | 140.27364 | 20177 ft | 398 kts | 266° |
| 2026-05-05 07:37 | 35.33669 | 140.23991 | 20936 ft | 399 kts | 266° |
| 2026-05-05 07:37 | 35.33439 | 140.20609 | 21680 ft | 399 kts | 266° |
| 2026-05-05 07:37 | 35.33208 | 140.17264 | 22375 ft | 399 kts | 266° |
| 2026-05-05 07:38 | 35.32973 | 140.13863 | 23079 ft | 399 kts | 265° |
| 2026-05-05 07:38 | 35.32737 | 140.10487 | 23760 ft | 399 kts | 265° |
| 2026-05-05 07:38 | 35.32505 | 140.07146 | 24406 ft | 400 kts | 265° |
| 2026-05-05 07:38 | 35.32267 | 140.03755 | 25056 ft | 399 kts | 265° |
| 2026-05-05 07:39 | 35.32033 | 140.00407 | 25693 ft | 399 kts | 264° |
| 2026-05-05 07:39 | 35.31722 | 139.97040 | 26309 ft | 398 kts | 261° |
| 2026-05-05 07:39 | 35.31206 | 139.93710 | 26934 ft | 397 kts | 258° |
| 2026-05-05 07:39 | 35.30497 | 139.90472 | 27514 ft | 397 kts | 254° |
| 2026-05-05 07:40 | 35.29606 | 139.87303 | 28074 ft | 397 kts | 250° |
| 2026-05-05 07:40 | 35.28639 | 139.84177 | 28669 ft | 395 kts | 251° |
| 2026-05-05 07:40 | 35.27668 | 139.81062 | 29294 ft | 392 kts | 250° |
| 2026-05-05 07:40 | 35.26696 | 139.77960 | 30094 ft | 385 kts | 250° |
| 2026-05-05 07:41 | 35.25753 | 139.74976 | 30926 ft | 377 kts | 250° |
| 2026-05-05 07:41 | 35.24818 | 139.71977 | 31729 ft | 369 kts | 250° |
| 2026-05-05 07:41 | 35.23889 | 139.69058 | 32444 ft | 364 kts | 249° |
| 2026-05-05 07:41 | 35.22979 | 139.66209 | 33084 ft | 359 kts | 250° |
| 2026-05-05 07:42 | 35.22070 | 139.63358 | 33766 ft | 354 kts | 249° |
| 2026-05-05 07:42 | 35.21201 | 139.60580 | 34388 ft | 350 kts | 250° |
| 2026-05-05 07:42 | 35.20416 | 139.57779 | 34847 ft | 349 kts | 252° |
| 2026-05-05 07:42 | 35.19718 | 139.54923 | 35251 ft | 350 kts | 254° |
| 2026-05-05 07:43 | 35.19105 | 139.52028 | 35680 ft | 350 kts | 256° |
| 2026-05-05 07:43 | 35.18590 | 139.49139 | 36080 ft | 350 kts | 257° |
| 2026-05-05 07:43 | 35.18156 | 139.46175 | 36455 ft | 350 kts | 259° |
| 2026-05-05 07:43 | 35.17821 | 139.43262 | 36765 ft | 351 kts | 261° |
| 2026-05-05 07:44 | 35.17577 | 139.40271 | 36974 ft | 354 kts | 261° |
| 2026-05-05 07:44 | 35.17414 | 139.37253 | 37165 ft | 357 kts | 263° |
| 2026-05-05 07:44 | 35.17258 | 139.34186 | 37385 ft | 359 kts | 262° |
| 2026-05-05 07:44 | 35.17106 | 139.31142 | 37669 ft | 360 kts | 263° |
| 2026-05-05 07:45 | 35.16954 | 139.28069 | 37911 ft | 362 kts | 263° |
| 2026-05-05 07:45 | 35.16806 | 139.25012 | 38130 ft | 363 kts | 263° |
| 2026-05-05 07:45 | 35.16506 | 139.18814 | 38206 ft | 367 kts | 263° |
| 2026-05-05 07:46 | 35.16209 | 139.12624 | 38208 ft | 366 kts | 263° |
| 2026-05-05 07:46 | 35.15910 | 139.06396 | 38214 ft | 366 kts | 263° |
| 2026-05-05 07:47 | 35.15603 | 139.00209 | 38208 ft | 366 kts | 263° |
| 2026-05-05 07:47 | 35.15305 | 138.94002 | 38203 ft | 368 kts | 263° |
| 2026-05-05 07:48 | 35.14988 | 138.87743 | 38207 ft | 367 kts | 263° |
| 2026-05-05 07:48 | 35.14677 | 138.81522 | 38208 ft | 367 kts | 264° |
| 2026-05-05 07:49 | 35.14360 | 138.75305 | 38207 ft | 368 kts | 263° |
| 2026-05-05 07:49 | 35.14036 | 138.69076 | 38211 ft | 368 kts | 263° |
| 2026-05-05 07:50 | 35.13708 | 138.62813 | 38209 ft | 368 kts | 263° |
| 2026-05-05 07:50 | 35.13378 | 138.56558 | 38201 ft | 368 kts | 263° |
| 2026-05-05 07:51 | 35.13047 | 138.50354 | 38201 ft | 369 kts | 263° |
| 2026-05-05 07:51 | 35.12567 | 138.44109 | 38200 ft | 368 kts | 260° |
| 2026-05-05 07:52 | 35.11695 | 138.38019 | 38200 ft | 367 kts | 257° |
| 2026-05-05 07:52 | 35.10418 | 138.31988 | 38210 ft | 366 kts | 252° |
| 2026-05-05 07:53 | 35.08779 | 138.26123 | 38213 ft | 366 kts | 251° |
| 2026-05-05 07:53 | 35.07078 | 138.20279 | 38218 ft | 367 kts | 251° |
| 2026-05-05 07:54 | 35.05362 | 138.14424 | 38226 ft | 367 kts | 250° |
| 2026-05-05 07:54 | 35.03629 | 138.08563 | 38228 ft | 366 kts | 250° |
| 2026-05-05 07:55 | 35.01898 | 138.02727 | 38230 ft | 367 kts | 251° |
| 2026-05-05 07:55 | 35.00164 | 137.96893 | 38231 ft | 365 kts | 250° |
| 2026-05-05 07:56 | 34.98422 | 137.91066 | 38231 ft | 366 kts | 250° |
| 2026-05-05 07:56 | 34.96665 | 137.85193 | 38219 ft | 366 kts | 251° |
| 2026-05-05 07:57 | 34.94922 | 137.79376 | 38216 ft | 367 kts | 251° |
| 2026-05-05 07:57 | 34.93181 | 137.73569 | 38205 ft | 367 kts | 250° |
| 2026-05-05 07:58 | 34.91430 | 137.67761 | 38210 ft | 367 kts | 250° |
| 2026-05-05 07:58 | 34.89686 | 137.61926 | 38215 ft | 367 kts | 251° |
| 2026-05-05 07:59 | 34.87948 | 137.56114 | 38181 ft | 366 kts | 250° |
| 2026-05-05 07:59 | 34.86200 | 137.50310 | 38207 ft | 366 kts | 250° |
| 2026-05-05 08:00 | 34.84477 | 137.44469 | 38210 ft | 366 kts | 252° |
| 2026-05-05 08:00 | 34.82825 | 137.38660 | 38207 ft | 366 kts | 252° |
| 2026-05-05 08:01 | 34.81136 | 137.32756 | 38217 ft | 367 kts | 251° |
| 2026-05-05 08:01 | 34.79460 | 137.26906 | 38202 ft | 367 kts | 251° |
| 2026-05-05 08:02 | 34.77763 | 137.20995 | 38204 ft | 367 kts | 251° |
| 2026-05-05 08:02 | 34.76088 | 137.15193 | 38198 ft | 367 kts | 250° |
| 2026-05-05 08:03 | 34.74387 | 137.09317 | 38200 ft | 367 kts | 251° |
| 2026-05-05 08:03 | 34.72691 | 137.03451 | 38202 ft | 367 kts | 250° |
| 2026-05-05 08:04 | 34.70939 | 136.97653 | 38201 ft | 367 kts | 248° |
| 2026-05-05 08:04 | 34.68830 | 136.92035 | 38196 ft | 368 kts | 245° |
| 2026-05-05 08:05 | 34.66498 | 136.86505 | 38198 ft | 368 kts | 245° |
| 2026-05-05 08:05 | 34.64178 | 136.80992 | 38194 ft | 367 kts | 244° |
| 2026-05-05 08:06 | 34.63020 | 136.78250 | 37928 ft | 367 kts | 245° |
| 2026-05-05 08:06 | 34.61860 | 136.75519 | 37631 ft | 365 kts | 245° |
| 2026-05-05 08:06 | 34.60710 | 136.72809 | 37300 ft | 361 kts | 245° |
| 2026-05-05 08:06 | 34.59558 | 136.70105 | 36920 ft | 358 kts | 245° |
| 2026-05-05 08:07 | 34.58432 | 136.67453 | 36438 ft | 358 kts | 245° |
| 2026-05-05 08:07 | 34.57286 | 136.64766 | 35822 ft | 358 kts | 244° |
| 2026-05-05 08:07 | 34.56158 | 136.62108 | 35254 ft | 358 kts | 244° |
| 2026-05-05 08:07 | 34.55008 | 136.59410 | 34675 ft | 359 kts | 244° |
| 2026-05-05 08:08 | 34.53871 | 136.56755 | 34067 ft | 359 kts | 243° |
| 2026-05-05 08:08 | 34.52718 | 136.54054 | 33414 ft | 360 kts | 243° |
| 2026-05-05 08:08 | 34.51574 | 136.51388 | 32743 ft | 361 kts | 243° |
| 2026-05-05 08:08 | 34.50425 | 136.48718 | 32075 ft | 362 kts | 244° |
| 2026-05-05 08:09 | 34.49256 | 136.46002 | 31390 ft | 363 kts | 244° |
| 2026-05-05 08:09 | 34.48093 | 136.43286 | 30730 ft | 365 kts | 244° |
| 2026-05-05 08:09 | 34.46925 | 136.40582 | 30034 ft | 366 kts | 245° |
| 2026-05-05 08:09 | 34.45757 | 136.37856 | 29358 ft | 368 kts | 245° |
| 2026-05-05 08:10 | 34.44563 | 136.35088 | 28676 ft | 370 kts | 245° |
| 2026-05-05 08:10 | 34.43375 | 136.32323 | 28010 ft | 373 kts | 244° |
| 2026-05-05 08:10 | 34.42187 | 136.29526 | 27520 ft | 384 kts | 244° |
| 2026-05-05 08:10 | 34.40930 | 136.26642 | 27169 ft | 391 kts | 244° |
| 2026-05-05 08:11 | 34.39664 | 136.23726 | 26749 ft | 388 kts | 245° |
| 2026-05-05 08:11 | 34.38424 | 136.20868 | 26321 ft | 384 kts | 245° |
| 2026-05-05 08:11 | 34.37207 | 136.18012 | 25900 ft | 381 kts | 245° |
| 2026-05-05 08:11 | 34.36127 | 136.15129 | 25487 ft | 377 kts | 249° |
| 2026-05-05 08:12 | 34.35205 | 136.12155 | 25078 ft | 373 kts | 252° |
| 2026-05-05 08:12 | 34.34464 | 136.09175 | 24679 ft | 370 kts | 256° |
| 2026-05-05 08:12 | 34.33880 | 136.06168 | 24304 ft | 370 kts | 258° |
| 2026-05-05 08:12 | 34.33326 | 136.03146 | 23920 ft | 371 kts | 258° |
| 2026-05-05 08:13 | 34.32768 | 136.00087 | 23534 ft | 371 kts | 257° |
| 2026-05-05 08:13 | 34.32220 | 135.97073 | 23124 ft | 371 kts | 257° |
| 2026-05-05 08:13 | 34.31663 | 135.94009 | 22690 ft | 372 kts | 258° |
| 2026-05-05 08:13 | 34.31115 | 135.90984 | 22262 ft | 372 kts | 257° |
| 2026-05-05 08:14 | 34.30568 | 135.87956 | 21838 ft | 371 kts | 257° |
| 2026-05-05 08:14 | 34.30007 | 135.84895 | 21403 ft | 372 kts | 258° |
| 2026-05-05 08:14 | 34.29458 | 135.81873 | 20959 ft | 372 kts | 257° |
| 2026-05-05 08:14 | 34.28901 | 135.78812 | 20527 ft | 372 kts | 257° |
| 2026-05-05 08:15 | 34.28343 | 135.75752 | 20101 ft | 372 kts | 257° |
| 2026-05-05 08:15 | 34.27793 | 135.72737 | 19695 ft | 372 kts | 257° |
| 2026-05-05 08:15 | 34.27236 | 135.69705 | 19280 ft | 371 kts | 257° |
| 2026-05-05 08:15 | 34.26675 | 135.66653 | 18860 ft | 372 kts | 257° |
| 2026-05-05 08:16 | 34.26115 | 135.63602 | 18432 ft | 372 kts | 257° |
| 2026-05-05 08:16 | 34.25560 | 135.60580 | 18002 ft | 371 kts | 257° |
| 2026-05-05 08:16 | 34.25004 | 135.57564 | 17572 ft | 371 kts | 257° |
| 2026-05-05 08:16 | 34.24441 | 135.54501 | 17145 ft | 370 kts | 257° |
| 2026-05-05 08:17 | 34.23889 | 135.51503 | 16728 ft | 369 kts | 257° |
| 2026-05-05 08:17 | 34.23327 | 135.48460 | 16282 ft | 368 kts | 257° |
| 2026-05-05 08:17 | 34.22773 | 135.45465 | 15861 ft | 367 kts | 256° |
| 2026-05-05 08:17 | 34.22221 | 135.42488 | 15442 ft | 366 kts | 256° |
| 2026-05-05 08:18 | 34.21661 | 135.39471 | 15006 ft | 365 kts | 256° |
| 2026-05-05 08:18 | 34.21103 | 135.36470 | 14589 ft | 364 kts | 256° |
| 2026-05-05 08:18 | 34.20555 | 135.33516 | 14177 ft | 363 kts | 255° |
| 2026-05-05 08:18 | 34.20006 | 135.30566 | 13763 ft | 362 kts | 255° |
| 2026-05-05 08:19 | 34.19456 | 135.27620 | 13343 ft | 361 kts | 255° |
| 2026-05-05 08:19 | 34.18898 | 135.24649 | 12871 ft | 362 kts | 255° |
| 2026-05-05 08:19 | 34.18347 | 135.21718 | 12439 ft | 361 kts | 255° |
| 2026-05-05 08:19 | 34.17789 | 135.18755 | 12003 ft | 359 kts | 255° |
| 2026-05-05 08:20 | 34.17289 | 135.15832 | 11572 ft | 359 kts | 262° |
| 2026-05-05 08:20 | 34.17490 | 135.12862 | 11121 ft | 361 kts | 285° |
| 2026-05-05 08:20 | 34.18601 | 135.10210 | 10920 ft | 351 kts | 306° |
| 2026-05-05 08:20 | 34.20331 | 135.08180 | 10819 ft | 339 kts | 320° |
| 2026-05-05 08:21 | 34.22133 | 135.06430 | 10702 ft | 327 kts | 320° |
| 2026-05-05 08:21 | 34.23870 | 135.04741 | 10560 ft | 316 kts | 320° |
| 2026-05-05 08:21 | 34.25564 | 135.03070 | 10450 ft | 304 kts | 320° |
| 2026-05-05 08:21 | 34.27191 | 135.01511 | 10359 ft | 293 kts | 327° |
| 2026-05-05 08:22 | 34.29004 | 135.00475 | 10274 ft | 285 kts | 343° |
| 2026-05-05 08:22 | 34.30941 | 135.00020 | 10187 ft | 281 kts | 352° |
| 2026-05-05 08:22 | 34.32860 | 134.99736 | 9954 ft | 281 kts | 353° |
| 2026-05-05 08:22 | 34.34821 | 134.99461 | 9633 ft | 281 kts | 353° |
| 2026-05-05 08:23 | 34.36747 | 134.99179 | 9328 ft | 280 kts | 353° |
| 2026-05-05 08:23 | 34.38695 | 134.98881 | 9026 ft | 280 kts | 353° |
| 2026-05-05 08:23 | 34.40615 | 134.98583 | 8738 ft | 278 kts | 353° |
| 2026-05-05 08:23 | 34.42520 | 134.98282 | 8447 ft | 277 kts | 353° |
| 2026-05-05 08:24 | 34.44446 | 134.98149 | 8085 ft | 277 kts | 12° |
| 2026-05-05 08:24 | 34.46189 | 134.99089 | 7703 ft | 274 kts | 42° |
| 2026-05-05 08:24 | 34.47436 | 135.00790 | 7387 ft | 272 kts | 53° |
| 2026-05-05 08:24 | 34.48616 | 135.02591 | 7080 ft | 271 kts | 53° |
| 2026-05-05 08:25 | 34.49786 | 135.04350 | 6791 ft | 269 kts | 52° |
| 2026-05-05 08:25 | 34.50973 | 135.06113 | 6503 ft | 268 kts | 52° |
| 2026-05-05 08:25 | 34.52159 | 135.07854 | 6208 ft | 266 kts | 52° |
| 2026-05-05 08:25 | 34.53323 | 135.09558 | 5940 ft | 264 kts | 52° |
| 2026-05-05 08:26 | 34.54495 | 135.11267 | 5661 ft | 263 kts | 52° |
| 2026-05-05 08:26 | 34.55659 | 135.12970 | 5381 ft | 262 kts | 52° |
| 2026-05-05 08:26 | 34.56814 | 135.14661 | 5108 ft | 261 kts | 53° |
| 2026-05-05 08:26 | 34.57974 | 135.16365 | 4830 ft | 259 kts | 52° |
| 2026-05-05 08:27 | 34.59126 | 135.18053 | 4553 ft | 258 kts | 53° |
| 2026-05-05 08:27 | 34.60198 | 135.19765 | 4253 ft | 256 kts | 65° |
| 2026-05-05 08:27 | 34.60683 | 135.21799 | 3950 ft | 247 kts | 90° |
| 2026-05-05 08:27 | 34.60657 | 135.23827 | 3685 ft | 236 kts | 95° |
| 2026-05-05 08:28 | 34.60588 | 135.25786 | 3447 ft | 227 kts | 95° |
| 2026-05-05 08:28 | 34.60531 | 135.27652 | 3227 ft | 218 kts | 94° |
| 2026-05-05 08:28 | 34.60487 | 135.29414 | 3119 ft | 199 kts | 94° |
| 2026-05-05 08:28 | 34.60455 | 135.31021 | 3121 ft | 180 kts | 94° |
| 2026-05-05 08:29 | 34.60423 | 135.32516 | 3127 ft | 178 kts | 95° |
| 2026-05-05 08:29 | 34.60389 | 135.34024 | 3103 ft | 174 kts | 95° |
| 2026-05-05 08:29 | 34.60345 | 135.35455 | 2889 ft | 166 kts | 101° |
| 2026-05-05 08:30 | 34.59082 | 135.37466 | 2466 ft | 154 kts | 157° |
| 2026-05-05 08:30 | 34.58028 | 135.37683 | 2362 ft | 157 kts | 182° |
| 2026-05-05 08:30 | 34.56940 | 135.37579 | 2271 ft | 156 kts | 179° |
| 2026-05-05 08:30 | 34.55864 | 135.37393 | 2129 ft | 158 kts | 192° |
| 2026-05-05 08:31 | 34.54819 | 135.36969 | 1910 ft | 158 kts | 196° |
| 2026-05-05 08:31 | 34.53831 | 135.36377 | 1687 ft | 160 kts | 211° |
| 2026-05-05 08:31 | 34.52980 | 135.35507 | 1608 ft | 161 kts | 220° |
| 2026-05-05 08:31 | 34.52200 | 135.34499 | 1605 ft | 163 kts | 225° |
| 2026-05-05 08:32 | 34.51476 | 135.33458 | 1605 ft | 163 kts | 227° |
| 2026-05-05 08:32 | 34.50765 | 135.32394 | 1598 ft | 161 kts | 227° |
| 2026-05-05 08:32 | 34.50069 | 135.31351 | 1516 ft | 154 kts | 227° |
| 2026-05-05 08:32 | 34.49403 | 135.30359 | 1321 ft | 152 kts | 227° |
| 2026-05-05 08:33 | 34.48735 | 135.29367 | 1125 ft | 151 kts | 227° |
| 2026-05-05 08:33 | 34.48072 | 135.28386 | 932 ft | 151 kts | 228° |
| 2026-05-05 08:33 | 34.47403 | 135.27393 | 733 ft | 151 kts | 229° |
| 2026-05-05 08:33 | 34.46742 | 135.26410 | 534 ft | 150 kts | 230° |
| 2026-05-05 08:34 | 34.46084 | 135.25424 | 337 ft | 149 kts | 230° |
| 2026-05-05 08:34 | 34.45437 | 135.24461 | 148 ft | 148 kts | 231° |
| 2026-05-05 08:34 | 34.44797 | 135.23508 | 21 ft | 138 kts | 231° |
| 2026-05-05 08:34 | 34.44307 | 135.22781 | 18 ft | 80 kts | 231° |
| 2026-05-05 08:35 | 34.44030 | 135.22368 | 18 ft | 40 kts | 231° |
| 2026-05-05 08:35 | 34.43910 | 135.22212 | 18 ft | 23 kts | 217° |
| 2026-05-05 08:35 | 34.43770 | 135.22122 | 18 ft | 19 kts | 202° |
| 2026-05-05 08:35 | 34.43684 | 135.22110 | 18 ft | 10 kts | 146° |
| 2026-05-05 08:36 | 34.43682 | 135.22192 | 18 ft | 12 kts | 54° |
| 2026-05-05 08:36 | 34.43744 | 135.22288 | 18 ft | 15 kts | 50° |
| 2026-05-05 08:36 | 34.43788 | 135.22376 | 18 ft | 10 kts | 90° |
| 2026-05-05 08:36 | 34.43738 | 135.22456 | 18 ft | 14 kts | 141° |
| 2026-05-05 08:37 | 34.43654 | 135.22539 | 18 ft | 16 kts | 141° |
| 2026-05-05 08:37 | 34.43557 | 135.22633 | 18 ft | 18 kts | 141° |
| 2026-05-05 08:37 | 34.43450 | 135.22739 | 18 ft | 20 kts | 141° |
| 2026-05-05 08:37 | 34.43339 | 135.22845 | 18 ft | 19 kts | 140° |
| 2026-05-05 08:38 | 34.43236 | 135.22949 | 18 ft | 18 kts | 141° |
| 2026-05-05 08:38 | 34.43137 | 135.23045 | 18 ft | 17 kts | 141° |
| 2026-05-05 08:38 | 34.43042 | 135.23138 | 18 ft | 16 kts | 141° |
| 2026-05-05 08:38 | 34.42953 | 135.23225 | 18 ft | 16 kts | 141° |
| 2026-05-05 08:39 | 34.42867 | 135.23309 | 18 ft | 15 kts | 141° |
| 2026-05-05 08:39 | 34.42783 | 135.23392 | 18 ft | 15 kts | 141° |
| 2026-05-05 08:39 | 34.42702 | 135.23469 | 18 ft | 14 kts | 141° |
| 2026-05-05 08:39 | 34.42622 | 135.23547 | 18 ft | 14 kts | 141° |
| 2026-05-05 08:40 | 34.42581 | 135.23619 | 18 ft | 10 kts | 96° |
| 2026-05-05 08:40 | 34.42606 | 135.23702 | 18 ft | 11 kts | 54° |
| 2026-05-05 08:40 | 34.42662 | 135.23787 | 18 ft | 13 kts | 51° |
| 2026-05-05 08:40 | 34.42727 | 135.23883 | 18 ft | 15 kts | 51° |
| 2026-05-05 08:41 | 34.42797 | 135.23988 | 18 ft | 16 kts | 51° |
| 2026-05-05 08:41 | 34.42873 | 135.24101 | 18 ft | 17 kts | 51° |
| 2026-05-05 08:41 | 34.42953 | 135.24220 | 18 ft | 18 kts | 51° |
| 2026-05-05 08:41 | 34.43037 | 135.24345 | 18 ft | 19 kts | 51° |
| 2026-05-05 08:42 | 34.43123 | 135.24474 | 18 ft | 20 kts | 51° |
| 2026-05-05 08:42 | 34.43213 | 135.24608 | 18 ft | 20 kts | 51° |
| 2026-05-05 08:42 | 34.43305 | 135.24745 | 18 ft | 20 kts | 51° |
| 2026-05-05 08:42 | 34.43393 | 135.24878 | 18 ft | 19 kts | 51° |
| 2026-05-05 08:43 | 34.43477 | 135.25001 | 18 ft | 18 kts | 50° |
| 2026-05-05 08:43 | 34.43556 | 135.25119 | 18 ft | 17 kts | 51° |
| 2026-05-05 08:43 | 34.43630 | 135.25229 | 18 ft | 13 kts | 51° |
| 2026-05-05 08:43 | 34.43689 | 135.25276 | 18 ft | 10 kts | 353° |
| 2026-05-05 08:44 | 34.43750 | 135.25281 | 18 ft | 9 kts | 19° |
| 2026-05-05 08:44 | 34.43805 | 135.25272 | 18 ft | 6 kts | 328° |
| 2026-05-05 08:44 | 34.43832 | 135.25249 | 18 ft | 2 kts | 321° |
| 2026-05-05 08:44 | 34.43838 | 135.25243 | 18 ft | 0 kts | 321° |
| 2026-05-05 08:45 | 34.43839 | 135.25241 | 18 ft | 0 kts | 321° |